SPHO/AYP METAR and TAF weather

Enter ICAO airport designator
Station Type Date Time Source
SPHO METAR 2021/01/17 18:00 UTC NOAA

SPHO 171800Z VRB01KT 9999 FEW013 SCT050 OVC080 18/09 Q1023 RMK PP000


Station Type Date Time Source
SPHO Decoded METAR 2021/01/17 18:00 UTC NOAA

Ayacucho, Peru (SPHO) 13-08S 074-13W 2749M
Jan 17, 2021 - 01:00 PM EST / 2021.01.17 1800 UTC
Wind: Variable at 1 MPH (1 KT):0
Visibility: greater than 7 mile(s):0
Sky conditions: overcast
Temperature: 64 F (18 C)
Dew Point: 48 F (9 C)
Relative Humidity: 55%
Pressure (altimeter): 30.21 in. Hg (1023 hPa)
ob: SPHO 171800Z VRB01KT 9999 FEW013 SCT050 OVC080 18/09 Q1023 RMK PP000
cycle: 18

Station Type Date Time Source
SPHO TAF 2021/01/17 18:33 UTC NOAA

SPHO 171700Z 1718/1818 06004KT 9999 FEW015 SCT035 OVC070 TX21/1720Z TN10/1811Z
BECMG 1802/1804 RA FEW010 SCT035 OVC070
BECMG 1808/1810 5000 BCFG SCT035 OVC080
FM181530 03003KT 9999 NSW FEW010 SCT040 BKN080

Example: see airport list